createdAt,value
2017-05-10T00:00:08.130Z,69.10
2017-05-10T00:02:35.050Z,69.00
2017-05-10T00:05:03.484Z,69.10
2017-05-10T00:07:30.206Z,69.10
2017-05-10T00:09:56.893Z,68.90
2017-05-10T00:14:54.684Z,68.30
2017-05-10T00:17:22.693Z,67.40
2017-05-10T00:19:49.863Z,67.50
2017-05-10T00:22:17.650Z,68.20
2017-05-10T00:24:44.753Z,69.70
2017-05-10T00:27:11.606Z,68.10
2017-05-10T00:29:38.707Z,69.50
2017-05-10T00:32:06.010Z,69.50
2017-05-10T00:34:34.843Z,68.90
2017-05-10T00:37:06.014Z,68.90
2017-05-10T00:39:33.249Z,69.30
2017-05-10T00:42:00.068Z,69.30
2017-05-10T00:44:28.382Z,69.00
2017-05-10T00:46:55.596Z,69.60
2017-05-10T00:49:25.144Z,69.60
2017-05-10T00:51:52.103Z,69.20
2017-05-10T00:54:18.482Z,69.20
2017-05-10T00:56:45.693Z,68.70
2017-05-10T00:59:18.191Z,69.60
2017-05-10T01:01:45.387Z,70.30
2017-05-10T01:04:12.137Z,69.30
2017-05-10T01:06:39.307Z,69.80
2017-05-10T01:09:06.524Z,68.40
2017-05-10T01:11:34.149Z,70.20
2017-05-10T01:14:01.620Z,69.10
2017-05-10T01:16:28.672Z,69.90
2017-05-10T01:18:55.716Z,70.30
2017-05-10T01:21:22.968Z,70.00
2017-05-10T01:23:49.792Z,68.90
2017-05-10T01:26:17.489Z,69.40
2017-05-10T01:28:44.320Z,68.90
2017-05-10T01:31:11.815Z,69.40
2017-05-10T01:33:38.725Z,69.40
2017-05-10T01:36:07.289Z,69.30
2017-05-10T01:38:33.966Z,69.40
2017-05-10T01:41:00.935Z,68.80
2017-05-10T01:43:28.115Z,68.80
2017-05-10T01:45:55.343Z,69.70
2017-05-10T01:48:22.004Z,69.70
2017-05-10T01:50:49.166Z,68.80
2017-05-10T01:53:16.400Z,69.00
2017-05-10T01:55:42.821Z,69.00
2017-05-10T01:58:10.253Z,68.70
2017-05-10T02:00:37.355Z,68.70
2017-05-10T02:03:04.929Z,68.90
2017-05-10T02:05:32.540Z,68.90
2017-05-10T02:08:00.075Z,69.60
2017-05-10T02:10:27.615Z,70.10
2017-05-10T02:12:54.596Z,69.50
2017-05-10T02:15:23.307Z,68.80
2017-05-10T02:17:50.987Z,68.80
2017-05-10T02:20:19.213Z,70.00
2017-05-10T02:22:46.979Z,68.10
2017-05-10T02:25:14.460Z,69.80
2017-05-10T02:27:41.337Z,69.00
2017-05-10T02:30:08.141Z,69.00
2017-05-10T02:32:35.253Z,66.90
2017-05-10T02:35:02.889Z,68.80
2017-05-10T02:37:30.003Z,69.00
2017-05-10T02:39:56.900Z,69.70
2017-05-10T02:42:24.329Z,69.80
2017-05-10T02:44:51.156Z,69.50
2017-05-10T02:47:18.661Z,69.30
2017-05-10T02:49:45.456Z,68.90
2017-05-10T02:52:12.738Z,68.60
2017-05-10T02:54:41.181Z,68.60
2017-05-10T02:57:08.340Z,69.00
2017-05-10T02:59:35.733Z,68.90
2017-05-10T03:02:02.489Z,68.90
2017-05-10T03:04:29.535Z,69.00
2017-05-10T03:06:56.589Z,69.40
2017-05-10T03:09:24.616Z,68.90
2017-05-10T03:11:51.848Z,68.10
2017-05-10T03:14:18.830Z,68.20
2017-05-10T03:16:45.516Z,68.20
2017-05-10T03:19:12.568Z,68.40
2017-05-10T03:21:39.996Z,68.50
2017-05-10T03:24:06.778Z,68.50
2017-05-10T03:26:34.553Z,68.80
2017-05-10T03:29:01.805Z,68.80
2017-05-10T03:31:28.633Z,68.50
2017-05-10T03:33:55.703Z,68.10
2017-05-10T03:36:22.548Z,68.10
2017-05-10T03:38:49.313Z,68.10
2017-05-10T03:41:16.919Z,68.40
2017-05-10T03:43:44.023Z,68.40
2017-05-10T03:46:11.212Z,69.00
2017-05-10T03:48:37.970Z,69.00
2017-05-10T03:51:05.069Z,68.40
2017-05-10T03:53:31.862Z,68.60
2017-05-10T03:55:59.084Z,68.50
2017-05-10T03:58:26.635Z,68.00
2017-05-10T04:00:54.776Z,68.10
2017-05-10T04:03:23.767Z,68.50
2017-05-10T04:05:50.864Z,68.50
2017-05-10T04:08:18.033Z,67.40
2017-05-10T04:10:44.820Z,67.80
2017-05-10T04:13:11.829Z,68.10
2017-05-10T04:15:38.293Z,68.10
2017-05-10T04:18:05.156Z,68.60
2017-05-10T04:20:31.851Z,68.60
2017-05-10T04:22:59.159Z,68.50
2017-05-10T04:25:27.189Z,69.00
2017-05-10T04:27:55.673Z,68.00
2017-05-10T04:30:22.525Z,68.10
2017-05-10T04:32:50.703Z,68.70
2017-05-10T04:35:17.964Z,67.90
2017-05-10T04:37:45.123Z,68.90
2017-05-10T04:40:13.747Z,69.20
2017-05-10T04:42:42.192Z,70.00
2017-05-10T04:45:09.011Z,69.50
2017-05-10T04:47:36.102Z,70.00
2017-05-10T04:50:04.126Z,69.20
2017-05-10T04:52:31.991Z,69.40
2017-05-10T04:54:58.588Z,69.40
2017-05-10T04:57:27.372Z,70.00
2017-05-10T04:59:54.447Z,69.60
2017-05-10T05:02:22.363Z,68.80
2017-05-10T05:04:50.186Z,68.80
2017-05-10T05:07:17.057Z,68.50
2017-05-10T05:09:44.660Z,68.90
2017-05-10T05:12:11.405Z,68.90
2017-05-10T05:14:38.523Z,68.30
2017-05-10T05:17:06.352Z,68.30
2017-05-10T05:19:33.736Z,68.30
2017-05-10T05:22:01.724Z,68.50
2017-05-10T05:24:28.476Z,68.80
2017-05-10T05:29:27.420Z,69.00
2017-05-10T05:31:55.322Z,69.30
2017-05-10T05:34:22.152Z,68.80
2017-05-10T05:36:50.313Z,68.80
2017-05-10T05:39:18.683Z,68.20
2017-05-10T05:41:45.413Z,68.20
2017-05-10T05:44:12.538Z,67.40
2017-05-10T05:46:39.277Z,67.40
2017-05-10T05:49:06.395Z,67.60
2017-05-10T05:51:34.649Z,67.50
2017-05-10T05:54:01.436Z,67.20
2017-05-10T05:56:28.632Z,66.30
2017-05-10T05:58:55.773Z,66.00
2017-05-10T06:01:23.848Z,65.90
2017-05-10T06:03:52.332Z,66.20
2017-05-10T06:06:19.463Z,66.20
2017-05-10T06:11:17.977Z,66.40
2017-05-10T06:13:45.479Z,65.80
2017-05-10T06:16:13.181Z,65.70
2017-05-10T06:18:41.723Z,65.90
2017-05-10T06:21:10.148Z,66.00
2017-05-10T06:23:36.589Z,66.00
2017-05-10T06:26:04.748Z,66.20
2017-05-10T06:31:03.870Z,66.40
2017-05-10T06:33:30.932Z,66.10
2017-05-10T06:36:00.776Z,65.40
2017-05-10T06:38:27.621Z,65.90
2017-05-10T06:40:54.845Z,66.40
2017-05-10T06:43:21.908Z,65.40
2017-05-10T06:45:48.699Z,65.40
2017-05-10T06:48:15.880Z,65.20
2017-05-10T06:50:43.527Z,64.90
2017-05-10T06:53:10.392Z,64.00
2017-05-10T06:55:38.464Z,64.10
2017-05-10T06:58:06.015Z,65.70
2017-05-10T07:00:32.856Z,65.40
2017-05-10T07:02:59.966Z,65.30
2017-05-10T07:05:29.085Z,65.20
2017-05-10T07:07:56.241Z,65.00
2017-05-10T07:10:30.190Z,66.70
2017-05-10T07:15:45.630Z,66.00
2017-05-10T07:18:15.515Z,66.60
2017-05-10T07:23:20.671Z,65.50
2017-05-10T07:31:03.673Z,67.40
2017-05-10T07:33:33.275Z,65.40
2017-05-10T07:38:43.592Z,65.30
2017-05-10T07:44:00.736Z,65.00
2017-05-10T07:49:09.132Z,65.20
2017-05-10T07:56:46.292Z,62.90
2017-05-10T07:59:14.039Z,62.00
2017-05-10T08:04:17.175Z,62.30
2017-05-10T08:06:48.113Z,61.20
2017-05-10T08:09:17.210Z,63.50
2017-05-10T08:22:04.374Z,63.40
2017-05-10T08:27:11.469Z,64.10
2017-05-10T08:29:38.918Z,64.10
2017-05-10T08:32:10.778Z,62.00
2017-05-10T08:34:39.743Z,59.70
2017-05-10T08:37:11.571Z,59.60
2017-05-10T08:39:56.852Z,61.20
2017-05-10T08:45:02.136Z,61.80
2017-05-10T08:50:23.989Z,60.30
2017-05-10T08:53:03.654Z,58.40
2017-05-10T08:55:34.259Z,58.40
2017-05-10T09:03:33.899Z,60.10
2017-05-10T09:14:12.522Z,56.60
2017-05-10T09:16:43.967Z,57.10
2017-05-10T09:24:35.531Z,48.60
2017-05-10T09:29:48.088Z,50.90
2017-05-10T09:34:54.402Z,53.80
2017-05-10T09:40:22.888Z,53.80
2017-05-10T09:50:51.806Z,52.60
2017-05-10T09:53:22.873Z,52.60
2017-05-10T09:55:56.352Z,49.80
2017-05-10T10:01:09.899Z,50.10
2017-05-10T10:03:49.873Z,47.60
2017-05-10T10:06:23.409Z,47.60
2017-05-10T10:08:59.317Z,50.10
2017-05-10T10:14:27.637Z,52.70
2017-05-10T10:22:07.640Z,50.40
2017-05-10T10:24:39.637Z,45.30
2017-05-10T10:29:55.798Z,46.70
2017-05-10T10:32:36.541Z,49.60
2017-05-10T10:37:57.569Z,45.20
2017-05-10T10:48:50.965Z,43.10
2017-05-10T10:51:27.066Z,46.30
2017-05-10T10:57:03.155Z,46.90
2017-05-10T10:59:41.073Z,43.50
2017-05-10T11:02:10.862Z,42.20
2017-05-10T11:07:13.596Z,43.40
2017-05-10T11:09:49.831Z,41.70
2017-05-10T11:14:57.412Z,39.70
2017-05-10T11:20:10.122Z,40.90
2017-05-10T11:22:43.447Z,44.00
2017-05-10T11:33:03.009Z,38.10
2017-05-10T11:49:11.035Z,28.50
2017-05-10T11:54:42.505Z,25.80
2017-05-10T12:17:51.547Z,22.30
2017-05-10T12:23:31.504Z,21.50
2017-05-10T12:53:10.720Z,19.10
2017-05-10T12:55:38.365Z,19.10
2017-05-10T12:58:05.554Z,18.80
2017-05-10T13:00:34.038Z,17.90
2017-05-10T13:03:02.334Z,17.90
2017-05-10T13:05:29.917Z,20.40
2017-05-10T13:07:57.154Z,19.40
2017-05-10T13:10:25.346Z,18.30
2017-05-10T13:12:53.891Z,18.30
2017-05-10T13:15:23.174Z,18.20
2017-05-10T13:17:50.414Z,17.60
2017-05-10T13:20:17.226Z,18.50
2017-05-10T13:22:45.240Z,18.60
2017-05-10T13:25:12.022Z,18.60
2017-05-10T13:27:40.126Z,17.10
2017-05-10T13:30:07.024Z,17.10
2017-05-10T13:32:35.565Z,15.90
2017-05-10T13:35:04.345Z,17.40
2017-05-10T13:37:34.272Z,17.30
2017-05-10T13:40:04.293Z,16.80
2017-05-10T13:42:32.407Z,16.80
2017-05-10T13:44:58.973Z,15.20
2017-05-10T13:47:26.100Z,17.20
2017-05-10T13:49:53.250Z,16.50
2017-05-10T13:52:23.059Z,16.20
2017-05-10T13:54:51.624Z,16.20
2017-05-10T13:57:20.662Z,16.30
2017-05-10T13:59:49.497Z,16.60
2017-05-10T14:02:16.304Z,15.80
2017-05-10T14:04:48.935Z,17.70
2017-05-10T14:07:19.266Z,17.00
2017-05-10T14:09:48.233Z,15.80
2017-05-10T14:12:23.590Z,14.70
2017-05-10T14:14:51.364Z,16.30
2017-05-10T14:17:21.122Z,16.10
2017-05-10T14:19:49.479Z,16.30
2017-05-10T14:22:17.789Z,16.70
2017-05-10T14:24:45.587Z,15.80
2017-05-10T14:27:14.148Z,15.70
2017-05-10T14:29:48.144Z,15.80
2017-05-10T14:32:26.860Z,15.90
2017-05-10T14:34:56.580Z,17.20
2017-05-10T14:37:24.753Z,16.60
2017-05-10T14:39:51.529Z,17.50
2017-05-10T14:42:20.796Z,17.50
2017-05-10T14:44:51.920Z,15.90
2017-05-10T14:47:23.281Z,15.50
2017-05-10T14:49:52.795Z,15.80
2017-05-10T14:52:21.861Z,17.00
2017-05-10T14:54:50.610Z,18.20
2017-05-10T14:57:21.010Z,18.30
2017-05-10T14:59:48.145Z,17.50
2017-05-10T15:07:36.876Z,17.30
2017-05-10T15:10:06.756Z,18.20
2017-05-10T15:12:37.350Z,17.50
2017-05-10T15:15:05.250Z,16.40
2017-05-10T15:17:32.627Z,16.40
2017-05-10T15:20:03.999Z,19.10
2017-05-10T15:22:33.782Z,19.40
2017-05-10T15:25:02.267Z,19.40
2017-05-10T15:27:30.970Z,19.60
2017-05-10T15:30:00.217Z,19.60
2017-05-10T15:32:28.429Z,17.10
2017-05-10T15:34:56.729Z,18.30
2017-05-10T15:37:26.712Z,19.30
2017-05-10T15:39:56.001Z,18.30
2017-05-10T15:42:24.328Z,18.40
2017-05-10T15:44:52.044Z,17.60
2017-05-10T15:47:19.322Z,17.30
2017-05-10T15:49:49.767Z,19.60
2017-05-10T15:52:18.600Z,19.20
2017-05-10T15:54:46.181Z,19.20
2017-05-10T15:57:13.062Z,20.30
2017-05-10T15:59:41.924Z,19.30
2017-05-10T16:02:10.998Z,20.20
2017-05-10T16:04:38.675Z,20.30
2017-05-10T16:07:07.853Z,20.40
2017-05-10T16:09:35.095Z,20.40
2017-05-10T16:12:05.531Z,20.20
2017-05-10T16:14:35.406Z,20.10
2017-05-10T16:17:02.569Z,20.60
2017-05-10T16:19:31.509Z,22.50
2017-05-10T16:22:02.728Z,21.10
2017-05-10T16:24:32.565Z,21.50
2017-05-10T16:27:06.355Z,21.50
2017-05-10T16:29:33.774Z,23.10
2017-05-10T16:32:02.388Z,23.20
2017-05-10T16:34:32.407Z,23.30
2017-05-10T16:37:00.409Z,24.20
2017-05-10T16:39:29.665Z,24.20
2017-05-10T16:42:00.297Z,23.60
2017-05-10T16:44:30.323Z,24.00
2017-05-10T16:47:04.039Z,24.00
2017-05-10T16:49:31.013Z,25.00
2017-05-10T16:52:01.547Z,24.30
2017-05-10T16:54:32.130Z,25.30
2017-05-10T16:56:59.396Z,24.70
2017-05-10T16:59:26.507Z,25.80
2017-05-10T17:01:56.208Z,26.00
2017-05-10T17:04:23.192Z,27.00
2017-05-10T17:06:53.557Z,29.60
2017-05-10T17:15:24.213Z,31.00
2017-05-10T17:29:49.463Z,34.30
2017-05-10T17:41:13.362Z,37.20
2017-05-10T17:43:40.515Z,37.20
2017-05-10T17:46:09.298Z,37.60
2017-05-10T17:48:40.481Z,39.50
2017-05-10T17:51:08.403Z,37.10
2017-05-10T17:53:36.170Z,37.10
2017-05-10T17:56:04.739Z,38.50
2017-05-10T17:58:36.394Z,38.90
2017-05-10T18:01:03.518Z,39.60
2017-05-10T18:03:32.264Z,39.80
2017-05-10T18:06:11.515Z,39.80
2017-05-10T18:08:38.311Z,40.70
2017-05-10T18:11:06.344Z,40.70
2017-05-10T18:13:33.987Z,42.60
2017-05-10T18:16:01.440Z,42.60
2017-05-10T18:18:29.581Z,44.50
2017-05-10T18:20:56.467Z,44.80
2017-05-10T18:23:22.918Z,44.80
2017-05-10T18:25:49.886Z,45.60
2017-05-10T18:28:17.563Z,46.60
2017-05-10T18:30:46.432Z,46.20
2017-05-10T18:33:13.563Z,47.10
2017-05-10T18:35:41.505Z,47.60
2017-05-10T18:40:49.392Z,46.90
2017-05-10T18:43:26.959Z,48.00
2017-05-10T18:45:57.096Z,47.90
2017-05-10T18:56:36.160Z,49.60
2017-05-10T19:02:11.732Z,50.80
2017-05-10T19:04:46.088Z,52.00
2017-05-10T19:12:30.382Z,53.40
2017-05-10T19:15:00.917Z,54.30
2017-05-10T19:17:32.006Z,54.30
2017-05-10T19:34:29.820Z,57.30
2017-05-10T19:37:08.407Z,57.70
2017-05-10T19:39:39.269Z,58.10
2017-05-10T19:56:50.811Z,62.00
2017-05-10T20:01:53.179Z,62.50
2017-05-10T20:07:09.216Z,62.80
2017-05-10T20:09:52.165Z,62.50
2017-05-10T20:31:16.333Z,64.80
2017-05-10T20:44:35.641Z,64.00
2017-05-10T20:47:11.108Z,64.60
2017-05-10T21:00:26.054Z,66.90
2017-05-10T21:05:43.003Z,66.60
2017-05-10T21:13:27.650Z,68.00
2017-05-10T21:21:02.767Z,67.90
2017-05-10T21:26:08.535Z,67.70
2017-05-10T21:28:40.292Z,68.80
2017-05-10T21:31:14.976Z,68.70
2017-05-10T21:33:54.061Z,68.70
2017-05-10T21:41:57.737Z,68.40
2017-05-10T21:49:53.471Z,68.00
2017-05-10T21:58:04.060Z,69.00
2017-05-10T22:18:52.821Z,67.40
2017-05-10T22:23:57.932Z,68.00
2017-05-10T22:26:32.684Z,67.80
2017-05-10T22:31:35.685Z,67.80
2017-05-10T22:44:24.089Z,67.50
2017-05-10T22:46:55.476Z,68.50
2017-05-10T22:49:27.092Z,68.50
2017-05-10T22:51:58.213Z,69.10
2017-05-10T22:57:00.543Z,69.00
2017-05-10T23:04:47.080Z,68.40
2017-05-10T23:15:07.280Z,67.50
2017-05-10T23:17:34.587Z,67.90
2017-05-10T23:30:33.886Z,68.50
2017-05-10T23:41:07.026Z,68.40
2017-05-10T23:43:37.428Z,68.90
2017-05-10T23:54:01.959Z,68.20
2017-05-10T23:56:39.179Z,68.20
2017-05-10T23:59:08.697Z,68.20
